sensor_id;sensor_type;location;lat;lon;timestamp;pressure;altitude;pressure_sealevel;temperature;humidity
35507;BME280;36461;52.018;21.036;2022-09-09T00:04:12;100080.71;;;12.71;71.43
35507;BME280;36461;52.018;21.036;2022-09-09T00:12:54;100066.45;;;12.61;72.24
35507;BME280;36461;52.018;21.036;2022-09-09T00:21:29;100060.59;;;12.56;72.77
35507;BME280;36461;52.018;21.036;2022-09-09T00:23:59;100063.72;;;12.54;73.05
35507;BME280;36461;52.018;21.036;2022-09-09T00:26:51;100073.15;;;12.56;73.29
35507;BME280;36461;52.018;21.036;2022-09-09T00:29:28;100072.75;;;12.55;73.47
35507;BME280;36461;52.018;21.036;2022-09-09T00:32:00;100067.18;;;12.54;73.60
35507;BME280;36461;52.018;21.036;2022-09-09T00:34:29;100074.13;;;12.54;73.68
35507;BME280;36461;52.018;21.036;2022-09-09T00:36:56;100071.33;;;12.58;73.95
35507;BME280;36461;52.018;21.036;2022-09-09T00:39:41;100074.30;;;12.59;73.97
35507;BME280;36461;52.018;21.036;2022-09-09T00:42:20;100079.91;;;12.61;74.22
35507;BME280;36461;52.018;21.036;2022-09-09T00:44:51;100077.96;;;12.55;74.27
35507;BME280;36461;52.018;21.036;2022-09-09T00:59:07;100080.71;;;12.52;74.83
35507;BME280;36461;52.018;21.036;2022-09-09T01:01:35;100078.83;;;12.56;75.03
35507;BME280;36461;52.018;21.036;2022-09-09T01:04:04;100074.84;;;12.57;75.08
35507;BME280;36461;52.018;21.036;2022-09-09T01:06:36;100067.87;;;12.58;75.06
35507;BME280;36461;52.018;21.036;2022-09-09T01:09:32;100073.39;;;12.61;75.21
35507;BME280;36461;52.018;21.036;2022-09-09T01:15:25;100062.14;;;12.60;75.13
35507;BME280;36461;52.018;21.036;2022-09-09T01:18:10;100060.84;;;12.60;75.34
35507;BME280;36461;52.018;21.036;2022-09-09T01:24:27;100057.13;;;12.55;75.63
35507;BME280;36461;52.018;21.036;2022-09-09T01:26:58;100053.55;;;12.58;76.12
35507;BME280;36461;52.018;21.036;2022-09-09T01:29:29;100056.22;;;12.56;76.04
35507;BME280;36461;52.018;21.036;2022-09-09T01:32:00;100055.00;;;12.55;76.30
35507;BME280;36461;52.018;21.036;2022-09-09T01:34:33;100052.31;;;12.56;76.36
35507;BME280;36461;52.018;21.036;2022-09-09T01:37:07;100064.67;;;12.62;76.36
35507;BME280;36461;52.018;21.036;2022-09-09T01:39:38;100059.39;;;12.63;76.36
35507;BME280;36461;52.018;21.036;2022-09-09T01:42:11;100063.22;;;12.65;76.46
35507;BME280;36461;52.018;21.036;2022-09-09T01:44:40;100069.73;;;12.65;76.48
35507;BME280;36461;52.018;21.036;2022-09-09T01:47:07;100073.12;;;12.67;76.47
35507;BME280;36461;52.018;21.036;2022-09-09T01:49:37;100071.36;;;12.67;76.54
35507;BME280;36461;52.018;21.036;2022-09-09T01:52:06;100068.83;;;12.66;76.61
35507;BME280;36461;52.018;21.036;2022-09-09T01:54:36;100067.84;;;12.68;76.71
35507;BME280;36461;52.018;21.036;2022-09-09T02:00:08;100059.05;;;12.71;77.07
35507;BME280;36461;52.018;21.036;2022-09-09T02:08:43;100058.25;;;12.69;77.15
35507;BME280;36461;52.018;21.036;2022-09-09T02:11:15;100060.86;;;12.69;77.33
35507;BME280;36461;52.018;21.036;2022-09-09T02:13:49;100061.72;;;12.69;77.30
35507;BME280;36461;52.018;21.036;2022-09-09T02:16:27;100055.48;;;12.63;77.38
35507;BME280;36461;52.018;21.036;2022-09-09T02:19:06;100056.86;;;12.62;77.51
35507;BME280;36461;52.018;21.036;2022-09-09T02:21:36;100054.19;;;12.63;77.83
35507;BME280;36461;52.018;21.036;2022-09-09T02:24:06;100055.80;;;12.66;77.92
35507;BME280;36461;52.018;21.036;2022-09-09T02:26:39;100055.80;;;12.66;77.90
35507;BME280;36461;52.018;21.036;2022-09-09T02:29:14;100057.18;;;12.64;77.97
35507;BME280;36461;52.018;21.036;2022-09-09T02:31:44;100049.84;;;12.64;77.91
35507;BME280;36461;52.018;21.036;2022-09-09T02:34:17;100058.88;;;12.65;78.11
35507;BME280;36461;52.018;21.036;2022-09-09T02:36:46;100053.20;;;12.66;78.20
35507;BME280;36461;52.018;21.036;2022-09-09T02:39:14;100050.01;;;12.69;78.34
35507;BME280;36461;52.018;21.036;2022-09-09T02:41:42;100057.03;;;12.67;78.11
35507;BME280;36461;52.018;21.036;2022-09-09T02:44:14;100057.65;;;12.64;78.25
35507;BME280;36461;52.018;21.036;2022-09-09T02:55:47;100055.88;;;12.64;78.87
35507;BME280;36461;52.018;21.036;2022-09-09T02:58:18;100057.42;;;12.68;79.07
35507;BME280;36461;52.018;21.036;2022-09-09T03:00:49;100059.20;;;12.68;78.94
35507;BME280;36461;52.018;21.036;2022-09-09T03:03:18;100059.63;;;12.67;79.04
35507;BME280;36461;52.018;21.036;2022-09-09T03:05:46;100059.12;;;12.69;79.11
35507;BME280;36461;52.018;21.036;2022-09-09T03:08:13;100065.95;;;12.72;79.19
35507;BME280;36461;52.018;21.036;2022-09-09T03:10:41;100061.25;;;12.70;79.06
35507;BME280;36461;52.018;21.036;2022-09-09T03:13:09;100056.44;;;12.71;79.34
35507;BME280;36461;52.018;21.036;2022-09-09T03:15:38;100055.53;;;12.72;79.37
35507;BME280;36461;52.018;21.036;2022-09-09T03:18:05;100052.85;;;12.73;79.43
35507;BME280;36461;52.018;21.036;2022-09-09T03:20:33;100056.83;;;12.72;79.57
35507;BME280;36461;52.018;21.036;2022-09-09T03:23:00;100049.85;;;12.72;79.55
35507;BME280;36461;52.018;21.036;2022-09-09T03:25:28;100057.52;;;12.75;79.66
35507;BME280;36461;52.018;21.036;2022-09-09T03:27:56;100057.52;;;12.75;79.66
35507;BME280;36461;52.018;21.036;2022-09-09T03:30:24;100055.77;;;12.76;79.73
35507;BME280;36461;52.018;21.036;2022-09-09T03:32:53;100048.36;;;12.77;79.72
35507;BME280;36461;52.018;21.036;2022-09-09T03:35:21;100047.41;;;12.78;79.73
35507;BME280;36461;52.018;21.036;2022-09-09T03:37:48;100048.36;;;12.77;79.71
35507;BME280;36461;52.018;21.036;2022-09-09T03:40:15;100051.47;;;12.75;79.74
35507;BME280;36461;52.018;21.036;2022-09-09T03:42:44;100050.77;;;12.71;79.84
35507;BME280;36461;52.018;21.036;2022-09-09T03:45:10;100055.89;;;12.73;80.09
35507;BME280;36461;52.018;21.036;2022-09-09T03:47:38;100047.17;;;12.74;80.09
35507;BME280;36461;52.018;21.036;2022-09-09T03:50:07;100055.30;;;12.76;80.09
35507;BME280;36461;52.018;21.036;2022-09-09T03:52:39;100047.80;;;12.79;80.11
35507;BME280;36461;52.018;21.036;2022-09-09T03:55:09;100048.13;;;12.82;80.23
35507;BME280;36461;52.018;21.036;2022-09-09T03:57:36;100045.44;;;12.83;80.19
35507;BME280;36461;52.018;21.036;2022-09-09T04:00:07;100053.84;;;12.80;80.20
35507;BME280;36461;52.018;21.036;2022-09-09T04:02:44;100054.47;;;12.76;80.32
35507;BME280;36461;52.018;21.036;2022-09-09T04:05:13;100056.53;;;12.78;80.47
35507;BME280;36461;52.018;21.036;2022-09-09T04:07:41;100060.83;;;12.79;80.63
35507;BME280;36461;52.018;21.036;2022-09-09T04:10:09;100060.23;;;12.83;80.61
35507;BME280;36461;52.018;21.036;2022-09-09T04:12:37;100059.33;;;12.84;80.67
35507;BME280;36461;52.018;21.036;2022-09-09T04:15:05;100050.66;;;12.83;80.46
35507;BME280;36461;52.018;21.036;2022-09-09T04:17:33;100032.61;;;12.70;80.61
35507;BME280;36461;52.018;21.036;2022-09-09T04:20:00;100052.34;;;12.84;80.78
35507;BME280;36461;52.018;21.036;2022-09-09T04:22:28;100046.35;;;12.82;80.78
35507;BME280;36461;52.018;21.036;2022-09-09T04:24:54;100047.21;;;12.83;80.95
35507;BME280;36461;52.018;21.036;2022-09-09T04:27:21;100042.84;;;12.83;80.90
35507;BME280;36461;52.018;21.036;2022-09-09T04:29:48;100038.69;;;12.79;81.01
35507;BME280;36461;52.018;21.036;2022-09-09T04:32:14;100037.98;;;12.75;81.13
35507;BME280;36461;52.018;21.036;2022-09-09T04:34:41;100043.50;;;12.78;81.51
35507;BME280;36461;52.018;21.036;2022-09-09T04:37:08;100044.73;;;12.80;81.56
35507;BME280;36461;52.018;21.036;2022-09-09T04:39:37;100048.64;;;12.80;81.55
35507;BME280;36461;52.018;21.036;2022-09-09T04:42:05;100060.75;;;12.81;81.56
35507;BME280;36461;52.018;21.036;2022-09-09T04:44:33;100055.11;;;12.81;81.58
35507;BME280;36461;52.018;21.036;2022-09-09T04:46:59;100049.81;;;12.83;81.58
35507;BME280;36461;52.018;21.036;2022-09-09T04:49:26;100047.29;;;12.81;81.71
35507;BME280;36461;52.018;21.036;2022-09-09T04:51:54;100052.11;;;12.80;81.79
35507;BME280;36461;52.018;21.036;2022-09-09T04:54:22;100054.71;;;12.80;81.96
35507;BME280;36461;52.018;21.036;2022-09-09T04:56:50;100056.65;;;12.85;82.13
35507;BME280;36461;52.018;21.036;2022-09-09T04:59:18;100059.69;;;12.85;82.12
35507;BME280;36461;52.018;21.036;2022-09-09T05:01:46;100064.83;;;12.86;82.12
35507;BME280;36461;52.018;21.036;2022-09-09T05:04:14;100066.91;;;12.88;82.11
35507;BME280;36461;52.018;21.036;2022-09-09T05:06:42;100068.06;;;12.91;82.17
35507;BME280;36461;52.018;21.036;2022-09-09T05:09:10;100063.17;;;12.94;82.19
35507;BME280;36461;52.018;21.036;2022-09-09T05:11:37;100070.83;;;12.97;82.16
35507;BME280;36461;52.018;21.036;2022-09-09T05:14:18;100073.00;;;12.98;82.07
35507;BME280;36461;52.018;21.036;2022-09-09T05:16:45;100072.13;;;12.97;82.23
35507;BME280;36461;52.018;21.036;2022-09-09T05:19:13;100080.27;;;13.00;82.33
35507;BME280;36461;52.018;21.036;2022-09-09T05:21:44;100073.39;;;12.99;82.31
35507;BME280;36461;52.018;21.036;2022-09-09T05:24:12;100072.45;;;13.00;82.36
35507;BME280;36461;52.018;21.036;2022-09-09T05:26:39;100076.59;;;13.04;82.34
35507;BME280;36461;52.018;21.036;2022-09-09T05:29:06;100073.08;;;13.05;82.57
35507;BME280;36461;52.018;21.036;2022-09-09T05:31:34;100072.48;;;13.08;82.52
35507;BME280;36461;52.018;21.036;2022-09-09T05:34:03;100071.89;;;13.12;82.53
35507;BME280;36461;52.018;21.036;2022-09-09T05:36:29;100078.72;;;13.15;82.42
35507;BME280;36461;52.018;21.036;2022-09-09T05:38:56;100069.76;;;13.20;82.57
35507;BME280;36461;52.018;21.036;2022-09-09T05:41:25;100071.45;;;13.21;82.48
35507;BME280;36461;52.018;21.036;2022-09-09T05:43:53;100071.69;;;13.25;82.42
35507;BME280;36461;52.018;21.036;2022-09-09T05:46:22;100076.34;;;13.28;82.26
35507;BME280;36461;52.018;21.036;2022-09-09T05:48:53;100075.28;;;13.32;82.23
35507;BME280;36461;52.018;21.036;2022-09-09T05:51:25;100065.51;;;13.37;82.32
35507;BME280;36461;52.018;21.036;2022-09-09T05:53:55;100058.73;;;13.33;82.24
35507;BME280;36461;52.018;21.036;2022-09-09T05:56:26;100083.70;;;13.47;82.47
35507;BME280;36461;52.018;21.036;2022-09-09T05:58:55;100083.70;;;13.47;82.47
35507;BME280;36461;52.018;21.036;2022-09-09T06:01:25;100084.33;;;13.52;82.33
35507;BME280;36461;52.018;21.036;2022-09-09T06:03:57;100095.03;;;13.55;82.21
35507;BME280;36461;52.018;21.036;2022-09-09T06:06:27;100095.03;;;13.55;82.22
35507;BME280;36461;52.018;21.036;2022-09-09T06:09:00;100085.70;;;13.59;82.35
35507;BME280;36461;52.018;21.036;2022-09-09T06:11:31;100092.37;;;13.65;82.26
35507;BME280;36461;52.018;21.036;2022-09-09T06:13:59;100099.98;;;13.70;82.35
35507;BME280;36461;52.018;21.036;2022-09-09T06:16:27;100094.99;;;13.74;82.24
35507;BME280;36461;52.018;21.036;2022-09-09T06:18:57;100070.75;;;13.63;82.27
35507;BME280;36461;52.018;21.036;2022-09-09T06:21:27;100094.44;;;13.76;82.19
35507;BME280;36461;52.018;21.036;2022-09-09T06:23:59;100094.99;;;13.74;82.18
35507;BME280;36461;52.018;21.036;2022-09-09T06:29:00;100107.64;;;13.73;82.01
35507;BME280;36461;52.018;21.036;2022-09-09T06:31:31;100083.71;;;13.65;82.35
35507;BME280;36461;52.018;21.036;2022-09-09T06:34:04;100083.71;;;13.65;82.35
35507;BME280;36461;52.018;21.036;2022-09-09T06:36:37;100107.40;;;13.78;82.30
35507;BME280;36461;52.018;21.036;2022-09-09T06:39:06;100098.97;;;13.81;82.34
35507;BME280;36461;52.018;21.036;2022-09-09T06:41:35;100109.55;;;13.87;82.37
35507;BME280;36461;52.018;21.036;2022-09-09T06:44:03;100105.95;;;13.89;82.33
35507;BME280;36461;52.018;21.036;2022-09-09T06:46:37;100107.86;;;13.95;82.36
35507;BME280;36461;52.018;21.036;2022-09-09T06:49:07;100112.00;;;13.99;82.43
35507;BME280;36461;52.018;21.036;2022-09-09T06:51:36;100114.23;;;14.06;82.34
35507;BME280;36461;52.018;21.036;2022-09-09T06:54:10;100113.67;;;14.08;82.01
35507;BME280;36461;52.018;21.036;2022-09-09T06:56:40;100112.98;;;14.14;82.19
35507;BME280;36461;52.018;21.036;2022-09-09T06:59:11;100104.23;;;14.15;82.09
35507;BME280;36461;52.018;21.036;2022-09-09T07:01:43;100111.03;;;14.26;82.23
35507;BME280;36461;52.018;21.036;2022-09-09T07:04:11;100116.78;;;14.33;82.15
35507;BME280;36461;52.018;21.036;2022-09-09T07:06:43;100118.39;;;14.35;81.97
35507;BME280;36461;52.018;21.036;2022-09-09T07:09:15;100117.95;;;14.36;81.54
35507;BME280;36461;52.018;21.036;2022-09-09T07:11:46;100117.95;;;14.36;81.75
35507;BME280;36461;52.018;21.036;2022-09-09T07:14:15;100114.25;;;14.40;81.82
35507;BME280;36461;52.018;21.036;2022-09-09T07:16:45;100124.36;;;14.46;81.84
35507;BME280;36461;52.018;21.036;2022-09-09T07:19:14;100125.83;;;14.52;81.74
35507;BME280;36461;52.018;21.036;2022-09-09T07:21:42;100127.34;;;14.65;81.84
35507;BME280;36461;52.018;21.036;2022-09-09T07:24:11;100132.28;;;14.78;81.61
35507;BME280;36461;52.018;21.036;2022-09-09T07:26:39;100130.19;;;14.85;81.52
35507;BME280;36461;52.018;21.036;2022-09-09T07:29:08;100131.61;;;14.90;81.34
35507;BME280;36461;52.018;21.036;2022-09-09T07:31:37;100132.48;;;14.91;81.14
35507;BME280;36461;52.018;21.036;2022-09-09T07:34:08;100139.22;;;14.95;80.99
35507;BME280;36461;52.018;21.036;2022-09-09T07:36:37;100140.44;;;14.97;80.94
35507;BME280;36461;52.018;21.036;2022-09-09T07:39:08;100146.50;;;14.97;80.93
35507;BME280;36461;52.018;21.036;2022-09-09T07:41:43;100144.04;;;15.03;81.17
35507;BME280;36461;52.018;21.036;2022-09-09T07:44:14;100146.48;;;15.06;80.98
35507;BME280;36461;52.018;21.036;2022-09-09T07:46:44;100149.92;;;15.06;80.88
35507;BME280;36461;52.018;21.036;2022-09-09T07:49:14;100152.45;;;15.08;80.87
35507;BME280;36461;52.018;21.036;2022-09-09T07:51:44;100154.05;;;15.10;80.63
35507;BME280;36461;52.018;21.036;2022-09-09T07:54:14;100158.54;;;15.08;80.74
35507;BME280;36461;52.018;21.036;2022-09-09T07:56:43;100161.36;;;15.13;80.87
35507;BME280;36461;52.018;21.036;2022-09-09T07:59:11;100170.19;;;15.19;81.26
35507;BME280;36461;52.018;21.036;2022-09-09T08:01:43;100168.08;;;15.25;80.89
35507;BME280;36461;52.018;21.036;2022-09-09T08:04:14;100170.52;;;15.29;80.88
35507;BME280;36461;52.018;21.036;2022-09-09T08:07:06;100172.12;;;15.31;80.71
35507;BME280;36461;52.018;21.036;2022-09-09T08:09:15;100174.85;;;15.37;80.88
35507;BME280;36461;52.018;21.036;2022-09-09T08:11:43;100176.66;;;15.43;80.97
35507;BME280;36461;52.018;21.036;2022-09-09T08:14:11;100177.25;;;15.49;80.79
35507;BME280;36461;52.018;21.036;2022-09-09T08:16:41;100173.64;;;15.58;80.77
35507;BME280;36461;52.018;21.036;2022-09-09T08:19:11;100169.30;;;15.66;80.47
35507;BME280;36461;52.018;21.036;2022-09-09T08:21:39;100175.02;;;15.73;80.39
35507;BME280;36461;52.018;21.036;2022-09-09T08:24:08;100175.13;;;15.78;80.16
35507;BME280;36461;52.018;21.036;2022-09-09T08:26:39;100174.44;;;15.84;79.79
35507;BME280;36461;52.018;21.036;2022-09-09T08:29:12;100173.42;;;15.93;80.13
35507;BME280;36461;52.018;21.036;2022-09-09T08:34:15;100179.58;;;16.23;79.65
35507;BME280;36461;52.018;21.036;2022-09-09T08:36:44;100180.53;;;16.29;79.35
35507;BME280;36461;52.018;21.036;2022-09-09T08:39:15;100180.82;;;16.32;79.30
35507;BME280;36461;52.018;21.036;2022-09-09T08:42:15;100183.44;;;16.39;78.97
35507;BME280;36461;52.018;21.036;2022-09-09T08:44:45;100182.97;;;16.32;78.59
35507;BME280;36461;52.018;21.036;2022-09-09T08:50:37;100186.98;;;16.31;78.25
35507;BME280;36461;52.018;21.036;2022-09-09T08:53:11;100192.42;;;16.27;78.38
35507;BME280;36461;52.018;21.036;2022-09-09T08:55:59;100185.67;;;16.31;78.43
35507;BME280;36461;52.018;21.036;2022-09-09T08:58:29;100188.94;;;16.34;78.38
35507;BME280;36461;52.018;21.036;2022-09-09T09:01:21;100188.04;;;16.42;78.55
35507;BME280;36461;52.018;21.036;2022-09-09T09:10:17;100200.86;;;16.69;78.43
35507;BME280;36461;52.018;21.036;2022-09-09T09:13:01;100199.55;;;16.69;77.80
35507;BME280;36461;52.018;21.036;2022-09-09T09:15:37;100205.63;;;16.62;77.57
35507;BME280;36461;52.018;21.036;2022-09-09T09:18:04;100199.75;;;16.58;77.58
35507;BME280;36461;52.018;21.036;2022-09-09T09:20:42;100201.41;;;16.59;77.86
35507;BME280;36461;52.018;21.036;2022-09-09T09:23:15;100202.72;;;16.59;77.65
35507;BME280;36461;52.018;21.036;2022-09-09T09:25:55;100211.80;;;16.54;77.68
35507;BME280;36461;52.018;21.036;2022-09-09T09:28:25;100211.55;;;16.58;77.95
35507;BME280;36461;52.018;21.036;2022-09-09T09:31:09;100211.18;;;16.72;78.05
35507;BME280;36461;52.018;21.036;2022-09-09T09:33:47;100215.48;;;16.80;77.87
35507;BME280;36461;52.018;21.036;2022-09-09T09:36:24;100206.51;;;16.91;77.88
35507;BME280;36461;52.018;21.036;2022-09-09T09:38:58;100204.35;;;16.98;77.58
35507;BME280;36461;52.018;21.036;2022-09-09T09:44:06;100216.69;;;17.10;76.93
35507;BME280;36461;52.018;21.036;2022-09-09T09:49:59;100209.84;;;17.22;76.85
35507;BME280;36461;52.018;21.036;2022-09-09T09:52:31;100213.76;;;17.37;76.82
35507;BME280;36461;52.018;21.036;2022-09-09T09:55:03;100206.44;;;17.42;76.36
35507;BME280;36461;52.018;21.036;2022-09-09T09:57:33;100209.79;;;17.44;76.43
35507;BME280;36461;52.018;21.036;2022-09-09T10:00:15;100211.58;;;17.43;76.28
35507;BME280;36461;52.018;21.036;2022-09-09T10:02:47;100221.22;;;17.43;76.06
35507;BME280;36461;52.018;21.036;2022-09-09T10:05:18;100218.52;;;17.44;75.97
35507;BME280;36461;52.018;21.036;2022-09-09T10:11:22;100225.53;;;17.51;75.98
35507;BME280;36461;52.018;21.036;2022-09-09T10:13:57;100230.58;;;17.54;75.62
35507;BME280;36461;52.018;21.036;2022-09-09T10:19:36;100224.98;;;17.39;75.34
35507;BME280;36461;52.018;21.036;2022-09-09T10:27:30;100236.61;;;17.35;75.54
35507;BME280;36461;52.018;21.036;2022-09-09T10:36:35;100261.58;;;17.20;76.01
35507;BME280;36461;52.018;21.036;2022-09-09T10:38:45;100262.11;;;17.25;76.25
35507;BME280;36461;52.018;21.036;2022-09-09T10:42:05;100266.80;;;17.27;76.03
35507;BME280;36461;52.018;21.036;2022-09-09T10:55:57;100277.67;;;17.28;76.45
35507;BME280;36461;52.018;21.036;2022-09-09T10:58:35;100280.94;;;17.32;76.29
35507;BME280;36461;52.018;21.036;2022-09-09T11:01:15;100277.48;;;17.32;76.28
35507;BME280;36461;52.018;21.036;2022-09-09T11:03:46;100283.47;;;17.41;76.66
35507;BME280;36461;52.018;21.036;2022-09-09T11:06:19;100277.91;;;17.45;76.34
35507;BME280;36461;52.018;21.036;2022-09-09T11:08:47;100278.30;;;17.54;76.64
35507;BME280;36461;52.018;21.036;2022-09-09T11:11:19;100268.98;;;17.63;76.69
35507;BME280;36461;52.018;21.036;2022-09-09T11:14:22;100272.44;;;17.63;76.34
35507;BME280;36461;52.018;21.036;2022-09-09T11:16:53;100279.83;;;17.71;76.53
35507;BME280;36461;52.018;21.036;2022-09-09T11:19:39;100282.28;;;17.74;76.07
35507;BME280;36461;52.018;21.036;2022-09-09T11:31:21;100295.23;;;17.63;76.17
35507;BME280;36461;52.018;21.036;2022-09-09T11:37:14;100292.45;;;17.44;75.99
35507;BME280;36461;52.018;21.036;2022-09-09T11:39:58;100297.90;;;17.41;76.28
35507;BME280;36461;52.018;21.036;2022-09-09T11:42:24;100297.59;;;17.45;76.37
35507;BME280;36461;52.018;21.036;2022-09-09T11:44:51;100300.12;;;17.54;76.51
35507;BME280;36461;52.018;21.036;2022-09-09T11:47:24;100293.75;;;17.58;76.40
35507;BME280;36461;52.018;21.036;2022-09-09T11:52:47;100299.27;;;17.61;76.21
35507;BME280;36461;52.018;21.036;2022-09-09T12:00:46;100294.58;;;17.66;76.40
35507;BME280;36461;52.018;21.036;2022-09-09T12:03:39;100292.58;;;17.70;76.54
35507;BME280;36461;52.018;21.036;2022-09-09T12:06:29;100300.45;;;17.77;76.43
35507;BME280;36461;52.018;21.036;2022-09-09T12:11:45;100303.43;;;17.92;76.24
35507;BME280;36461;52.018;21.036;2022-09-09T12:16:51;100310.72;;;17.87;76.09
35507;BME280;36461;52.018;21.036;2022-09-09T12:19:22;100310.00;;;17.85;76.08
35507;BME280;36461;52.018;21.036;2022-09-09T12:21:56;100307.58;;;17.82;76.16
35507;BME280;36461;52.018;21.036;2022-09-09T12:24:34;100308.61;;;17.80;76.23
35507;BME280;36461;52.018;21.036;2022-09-09T12:27:24;100308.61;;;17.72;76.42
35507;BME280;36461;52.018;21.036;2022-09-09T12:32:30;100309.30;;;17.61;76.35
35507;BME280;36461;52.018;21.036;2022-09-09T12:35:03;100304.62;;;17.52;76.41
35507;BME280;36461;52.018;21.036;2022-09-09T12:40:33;100304.92;;;17.48;76.66
35507;BME280;36461;52.018;21.036;2022-09-09T12:43:02;100300.16;;;17.47;76.99
35507;BME280;36461;52.018;21.036;2022-09-09T12:45:48;100295.83;;;17.39;76.79
35507;BME280;36461;52.018;21.036;2022-09-09T12:48:20;100289.10;;;17.27;77.12
35507;BME280;36461;52.018;21.036;2022-09-09T12:50:50;100292.55;;;17.28;77.41
35507;BME280;36461;52.018;21.036;2022-09-09T12:53:27;100291.08;;;17.31;77.56
35507;BME280;36461;52.018;21.036;2022-09-09T12:58:32;100299.13;;;17.35;77.75
35507;BME280;36461;52.018;21.036;2022-09-09T13:01:02;100302.41;;;17.32;77.93
35507;BME280;36461;52.018;21.036;2022-09-09T13:03:41;100309.24;;;17.34;78.04
35507;BME280;36461;52.018;21.036;2022-09-09T13:06:13;100301.64;;;17.30;77.86
35507;BME280;36461;52.018;21.036;2022-09-09T13:08:55;100296.89;;;17.22;77.84
35507;BME280;36461;52.018;21.036;2022-09-09T13:11:31;100296.51;;;17.21;77.97
35507;BME280;36461;52.018;21.036;2022-09-09T13:14:00;100298.38;;;17.26;78.30
35507;BME280;36461;52.018;21.036;2022-09-09T13:16:33;100295.09;;;17.37;78.44
35507;BME280;36461;52.018;21.036;2022-09-09T13:19:13;100295.09;;;17.37;78.40
35507;BME280;36461;52.018;21.036;2022-09-09T13:21:37;100291.98;;;17.37;78.37
35507;BME280;36461;52.018;21.036;2022-09-09T13:24:06;100287.20;;;17.44;78.60
35507;BME280;36461;52.018;21.036;2022-09-09T13:27:00;100287.56;;;17.52;78.81
35507;BME280;36461;52.018;21.036;2022-09-09T13:29:31;100286.91;;;17.56;78.35
35507;BME280;36461;52.018;21.036;2022-09-09T13:32:17;100290.41;;;17.42;78.18
35507;BME280;36461;52.018;21.036;2022-09-09T13:34:56;100286.84;;;17.36;78.33
35507;BME280;36461;52.018;21.036;2022-09-09T13:37:38;100281.03;;;17.31;78.51
35507;BME280;36461;52.018;21.036;2022-09-09T13:40:18;100290.39;;;17.35;78.72
35507;BME280;36461;52.018;21.036;2022-09-09T13:42:50;100281.89;;;17.31;78.40
35507;BME280;36461;52.018;21.036;2022-09-09T13:45:24;100288.72;;;17.26;78.54
35507;BME280;36461;52.018;21.036;2022-09-09T13:47:53;100285.92;;;17.22;78.60
35507;BME280;36461;52.018;21.036;2022-09-09T13:50:26;100290.50;;;17.19;78.67
35507;BME280;36461;52.018;21.036;2022-09-09T13:52:58;100287.97;;;17.17;78.81
35507;BME280;36461;52.018;21.036;2022-09-09T13:55:27;100292.59;;;17.14;78.95
35507;BME280;36461;52.018;21.036;2022-09-09T13:58:00;100292.39;;;17.17;79.05
35507;BME280;36461;52.018;21.036;2022-09-09T14:00:33;100296.12;;;17.20;79.07
35507;BME280;36461;52.018;21.036;2022-09-09T14:03:00;100299.31;;;17.25;79.15
35507;BME280;36461;52.018;21.036;2022-09-09T14:05:32;100299.59;;;17.27;78.90
35507;BME280;36461;52.018;21.036;2022-09-09T14:08:00;100300.25;;;17.24;78.83
35507;BME280;36461;52.018;21.036;2022-09-09T14:10:33;100295.84;;;17.17;78.65
35507;BME280;36461;52.018;21.036;2022-09-09T14:13:01;100303.08;;;17.14;78.95
35507;BME280;36461;52.018;21.036;2022-09-09T14:15:29;100301.39;;;17.13;78.96
35507;BME280;36461;52.018;21.036;2022-09-09T14:17:56;100295.66;;;17.13;79.08
35507;BME280;36461;52.018;21.036;2022-09-09T14:20:25;100296.41;;;17.08;78.93
35507;BME280;36461;52.018;21.036;2022-09-09T14:22:51;100291.73;;;17.06;79.10
35507;BME280;36461;52.018;21.036;2022-09-09T14:25:19;100295.77;;;17.04;79.32
35507;BME280;36461;52.018;21.036;2022-09-09T14:27:46;100302.98;;;17.15;79.42
35507;BME280;36461;52.018;21.036;2022-09-09T14:30:13;100301.37;;;17.20;79.10
35507;BME280;36461;52.018;21.036;2022-09-09T14:32:40;100313.08;;;17.21;79.30
35507;BME280;36461;52.018;21.036;2022-09-09T14:35:07;100312.81;;;17.26;79.23
35507;BME280;36461;52.018;21.036;2022-09-09T14:37:34;100308.21;;;17.22;79.25
35507;BME280;36461;52.018;21.036;2022-09-09T14:40:01;100305.59;;;17.22;79.05
35507;BME280;36461;52.018;21.036;2022-09-09T14:42:28;100308.51;;;17.18;79.04
35507;BME280;36461;52.018;21.036;2022-09-09T14:44:56;100312.81;;;17.26;79.18
35507;BME280;36461;52.018;21.036;2022-09-09T14:47:23;100309.62;;;17.35;79.24
35507;BME280;36461;52.018;21.036;2022-09-09T14:49:50;100309.23;;;17.49;79.15
35507;BME280;36461;52.018;21.036;2022-09-09T14:52:18;100307.70;;;17.59;79.21
35507;BME280;36461;52.018;21.036;2022-09-09T14:54:45;100297.00;;;17.69;78.89
35507;BME280;36461;52.018;21.036;2022-09-09T14:57:12;100296.90;;;17.78;78.86
35507;BME280;36461;52.018;21.036;2022-09-09T14:59:38;100292.09;;;17.85;78.56
35507;BME280;36461;52.018;21.036;2022-09-09T15:02:05;100293.31;;;17.86;78.29
35507;BME280;36461;52.018;21.036;2022-09-09T15:04:31;100302.78;;;17.82;78.39
35507;BME280;36461;52.018;21.036;2022-09-09T15:06:59;100299.80;;;17.73;78.07
35507;BME280;36461;52.018;21.036;2022-09-09T15:09:26;100305.84;;;17.61;78.05
35507;BME280;36461;52.018;21.036;2022-09-09T15:11:53;100305.00;;;17.53;78.00
35507;BME280;36461;52.018;21.036;2022-09-09T15:14:19;100307.06;;;17.48;78.28
35507;BME280;36461;52.018;21.036;2022-09-09T15:16:46;100306.33;;;17.46;78.48
35507;BME280;36461;52.018;21.036;2022-09-09T15:19:13;100304.38;;;17.35;78.13